Time;durP1;ratioP1;P1;durP2;ratioP2;P2;SDS_P1;SDS_P2;PMS_P1;PMS_P2;Temp;Humidity;BMP_temperature;BMP_pressure;BME280_temperature;BME280_humidity;BME280_pressure;Samples;Min_cycle;Max_cycle;Signal;HPM_P1;HPM_P2
2021/04/23 00:01:43;;;;;;;26.70;6.95;;;;;;;15.24;60.21;100031.03;5085112;28;20078;-65
2021/04/23 00:04:09;;;;;;;16.75;6.95;;;;;;;15.26;60.68;100029.03;5082433;28;20040;-65
2021/04/23 00:06:39;;;;;;;13.80;6.03;;;;;;;15.37;60.54;100030.38;5087297;28;20040;-67
2021/04/23 00:09:15;;;;;;;12.25;6.28;;;;;;;15.49;59.31;100034.22;5084161;28;20077;-67
2021/04/23 00:11:40;;;;;;;33.30;11.13;;;;;;;15.63;58.74;100041.44;5082897;28;20337;-67
2021/04/23 00:14:07;;;;;;;25.73;8.70;;;;;;;15.71;59.25;100033.31;5084557;28;20032;-67
2021/04/23 00:16:32;;;;;;;14.18;6.13;;;;;;;15.79;60.28;100022.53;5083440;28;20039;-67
2021/04/23 00:18:58;;;;;;;11.73;6.28;;;;;;;15.58;60.62;100036.63;5083104;28;20316;-67
2021/04/23 00:21:23;;;;;;;11.52;5.70;;;;;;;15.60;60.39;100025.78;5083205;28;20052;-67
2021/04/23 00:23:51;;;;;;;10.38;5.65;;;;;;;15.71;59.24;100030.66;5083466;28;20048;-67
2021/04/23 00:26:17;;;;;;;6.18;4.97;;;;;;;15.43;60.95;100032.31;5083792;28;20466;-67
2021/04/23 00:28:43;;;;;;;8.30;5.00;;;;;;;15.29;61.77;100037.47;5082935;28;20032;-67
2021/04/23 00:31:12;;;;;;;9.38;5.45;;;;;;;15.06;62.18;100033.25;5083111;28;20040;-67
2021/04/23 00:33:38;;;;;;;10.32;5.38;;;;;;;15.25;61.77;100038.88;5082093;28;20037;-67
2021/04/23 00:36:05;;;;;;;8.80;6.00;;;;;;;15.30;60.85;100031.13;5083632;28;20327;-67
2021/04/23 00:38:32;;;;;;;19.58;10.40;;;;;;;15.42;61.26;100038.66;5084006;28;20302;-67
2021/04/23 00:41:19;;;;;;;21.08;11.18;;;;;;;15.46;60.70;100043.44;5081876;28;20372;-67
2021/04/23 00:43:55;;;;;;;18.17;9.40;;;;;;;15.46;60.68;100042.63;5080596;28;20293;-67
2021/04/23 00:46:21;;;;;;;11.55;8.38;;;;;;;15.48;60.68;100040.59;5083205;28;20266;-66
2021/04/23 00:48:48;;;;;;;12.48;8.13;;;;;;;15.57;59.88;100045.66;5083559;28;20387;-65
2021/04/23 00:51:24;;;;;;;12.38;6.75;;;;;;;15.56;59.83;100041.31;5083325;28;20059;-65
2021/04/23 00:53:51;;;;;;;7.72;5.57;;;;;;;15.59;59.57;100040.97;5082670;28;20280;-67
2021/04/23 00:56:21;;;;;;;12.55;6.88;;;;;;;15.54;59.98;100039.84;5082704;28;20035;-67
2021/04/23 00:58:48;;;;;;;15.10;10.70;;;;;;;15.47;60.58;100052.28;5082415;28;20048;-67
2021/04/23 01:01:22;;;;;;;11.70;7.95;;;;;;;15.45;60.79;100047.13;5085200;28;20317;-67
2021/04/23 01:03:47;;;;;;;;;;;;;;;15.51;60.27;100049.03;5082656;28;20032;-67
2021/04/23 01:06:18;;;;;;;11.65;7.88;;;;;;;15.39;60.90;100041.69;5084197;28;20440;-67
2021/04/23 01:08:45;;;;;;;11.35;6.70;;;;;;;15.12;62.17;100043.19;5082506;28;20043;-67
2021/04/23 01:11:12;;;;;;;10.73;6.28;;;;;;;15.12;61.70;100044.03;5081868;28;20032;-67
2021/04/23 01:13:38;;;;;;;9.07;6.28;;;;;;;15.19;61.51;100055.59;5083694;28;20318;-67
2021/04/23 01:16:08;;;;;;;10.13;6.30;;;;;;;15.07;61.69;100056.25;5081776;28;20039;-67
2021/04/23 01:18:34;;;;;;;7.78;5.78;;;;;;;15.16;61.09;100055.16;5082353;28;20032;-67
2021/04/23 01:21:21;;;;;;;9.30;5.97;;;;;;;15.26;61.19;100056.53;5083399;28;20048;-67
2021/04/23 01:23:49;;;;;;;9.52;6.75;;;;;;;15.39;60.79;100061.22;5082491;28;20066;-67
2021/04/23 01:26:18;;;;;;;10.82;6.93;;;;;;;15.47;59.79;100058.44;5082154;28;20511;-67
2021/04/23 01:28:46;;;;;;;10.20;7.15;;;;;;;15.49;60.29;100052.91;5082164;28;20032;-67
2021/04/23 01:31:14;;;;;;;8.52;5.70;;;;;;;15.57;59.73;100066.16;5082605;28;20024;-67
2021/04/23 01:33:43;;;;;;;8.63;5.63;;;;;;;15.54;59.69;100064.69;5083676;28;20035;-66
2021/04/23 01:36:09;;;;;;;8.63;5.40;;;;;;;15.52;59.54;100066.72;5081896;28;20033;-65
2021/04/23 01:38:37;;;;;;;7.35;5.10;;;;;;;15.62;59.69;100063.81;5081160;28;20032;-66
2021/04/23 01:41:05;;;;;;;9.38;5.30;;;;;;;15.45;59.35;100047.13;5082825;28;20307;-67
2021/04/23 01:43:30;;;;;;;11.88;6.47;;;;;;;15.59;59.64;100059.66;5082028;28;20040;-67
2021/04/23 01:45:56;;;;;;;7.07;5.35;;;;;;;15.38;60.49;100051.53;5081231;28;20067;-67
2021/04/23 01:48:22;;;;;;;7.57;5.00;;;;;;;15.39;60.49;100063.88;5082341;28;20032;-67
2021/04/23 01:50:47;;;;;;;9.90;5.05;;;;;;;15.41;61.11;100069.03;5083191;28;20058;-67
2021/04/23 01:53:13;;;;;;;11.38;5.63;;;;;;;15.39;61.32;100058.53;5083483;28;20028;-67
2021/04/23 01:55:41;;;;;;;9.25;5.57;;;;;;;15.41;61.64;100063.69;5090533;28;20099;-67
2021/04/23 01:58:07;;;;;;;7.43;5.20;;;;;;;15.38;61.24;100058.72;5086969;28;20067;-67
2021/04/23 02:00:35;;;;;;;8.13;5.50;;;;;;;15.43;61.42;100059.81;5086264;28;20311;-67
2021/04/23 02:03:04;;;;;;;9.75;5.47;;;;;;;15.39;61.34;100057.72;5082479;28;20052;-67
2021/04/23 02:05:30;;;;;;;6.78;5.28;;;;;;;15.37;61.45;100054.41;5081761;28;20066;-67
2021/04/23 02:07:56;;;;;;;10.63;5.22;;;;;;;15.41;61.03;100061.84;5081072;28;20045;-67
2021/04/23 02:10:30;;;;;;;8.15;5.35;;;;;;;15.41;61.02;100058.34;5082305;28;20321;-67
2021/04/23 02:12:56;;;;;;;15.68;5.85;;;;;;;15.47;60.86;100069.13;5082303;28;20040;-67
2021/04/23 02:15:22;;;;;;;9.05;5.65;;;;;;;15.51;60.84;100066.91;5081294;28;20048;-67
2021/04/23 02:17:48;;;;;;;9.73;5.22;;;;;;;15.63;60.41;100068.97;5081076;28;20215;-67
2021/04/23 02:20:21;;;;;;;9.35;5.47;;;;;;;15.47;60.46;100066.44;5083338;28;20032;-67
2021/04/23 02:22:47;;;;;;;9.20;5.82;;;;;;;15.53;60.33;100067.53;5080617;28;20264;-65
2021/04/23 02:25:14;;;;;;;8.00;6.07;;;;;;;15.48;60.75;100065.44;5080691;28;20203;-66
2021/04/23 02:27:41;;;;;;;13.10;6.65;;;;;;;15.52;60.73;100074.72;5080870;28;20034;-66
2021/04/23 02:30:17;;;;;;;10.15;5.85;;;;;;;15.53;60.91;100075.56;5081973;28;20234;-67
2021/04/23 02:32:43;;;;;;;14.73;6.40;;;;;;;15.56;60.06;100077.84;5080850;28;20078;-67
2021/04/23 02:35:11;;;;;;;10.63;6.35;;;;;;;15.45;60.37;100071.13;5081470;28;20025;-67
2021/04/23 02:37:37;;;;;;;13.35;6.28;;;;;;;15.41;60.84;100083.19;5080423;28;20020;-67
2021/04/23 02:40:06;;;;;;;8.18;6.28;;;;;;;15.49;60.59;100085.78;5081620;28;20031;-67
2021/04/23 02:42:32;;;;;;;12.23;6.70;;;;;;;15.51;60.95;100086.41;5080790;28;20319;-67
2021/04/23 02:44:58;;;;;;;11.88;7.32;;;;;;;15.54;61.46;100087.88;5081491;28;20024;-68
2021/04/23 02:47:23;;;;;;;10.40;6.57;;;;;;;15.58;61.38;100084.69;5083302;28;20286;-67
2021/04/23 02:49:49;;;;;;;12.95;6.90;;;;;;;15.54;61.87;100074.53;5080509;28;20032;-67
2021/04/23 02:52:15;;;;;;;11.80;6.32;;;;;;;15.49;61.32;100075.09;5081489;28;20047;-67
2021/04/23 02:54:41;;;;;;;11.98;6.95;;;;;;;15.49;62.04;100072.44;5080998;28;20047;-67
2021/04/23 02:57:06;;;;;;;10.77;6.05;;;;;;;15.47;61.33;100070.94;5080332;28;20052;-67
2021/04/23 02:59:32;;;;;;;11.38;7.00;;;;;;;15.42;62.06;100074.19;5080075;28;20346;-67
2021/04/23 03:01:59;;;;;;;15.07;7.57;;;;;;;15.57;61.42;100084.84;5081315;28;20028;-67
2021/04/23 03:04:26;;;;;;;9.85;7.15;;;;;;;15.64;60.45;100100.00;5080838;28;20031;-67
2021/04/23 03:06:52;;;;;;;12.38;6.85;;;;;;;15.50;61.68;100100.78;5081040;28;20050;-67
2021/04/23 03:09:17;;;;;;;15.32;7.82;;;;;;;15.65;60.44;100098.16;5082145;28;20028;-67
2021/04/23 03:11:43;;;;;;;21.42;10.02;;;;;;;15.61;60.27;100088.84;5081565;28;20032;-65
2021/04/23 03:14:09;;;;;;;27.15;9.35;;;;;;;15.52;60.51;100093.41;5081759;28;20251;-65
2021/04/23 03:16:38;;;;;;;13.88;7.70;;;;;;;15.47;60.92;100103.81;5080831;28;20047;-66
2021/04/23 03:19:13;;;;;;;15.60;7.00;;;;;;;15.62;60.32;100110.03;5080184;28;20036;-67
2021/04/23 03:21:39;;;;;;;18.27;8.25;;;;;;;15.59;60.15;100102.34;5080539;28;20104;-67
2021/04/23 03:24:06;;;;;;;16.42;7.60;;;;;;;15.64;60.05;100101.84;5081869;28;20119;-67
2021/04/23 03:26:32;;;;;;;17.50;7.97;;;;;;;15.63;60.05;100105.50;5079967;28;20037;-67
2021/04/23 03:28:57;;;;;;;23.42;9.25;;;;;;;15.58;59.41;100114.03;5081208;28;20044;-67
2021/04/23 03:31:23;;;;;;;21.05;10.57;;;;;;;15.54;59.97;100117.25;5081233;28;20040;-67
2021/04/23 03:33:49;;;;;;;18.75;10.32;;;;;;;15.54;60.15;100122.56;5080648;28;20204;-68
2021/04/23 03:36:14;;;;;;;22.48;9.63;;;;;;;15.56;60.02;100132.06;5080351;28;20067;-67
2021/04/23 03:38:43;;;;;;;14.52;8.80;;;;;;;15.55;60.21;100130.41;5079521;28;20044;-68
2021/04/23 03:41:16;;;;;;;19.63;9.32;;;;;;;15.60;59.85;100138.75;5083843;28;20028;-67
2021/04/23 03:43:43;;;;;;;15.23;7.65;;;;;;;15.67;59.09;100143.34;5081795;28;20313;-67
2021/04/23 03:46:10;;;;;;;14.00;6.18;;;;;;;15.51;59.62;100138.97;5079470;28;20028;-67
2021/04/23 03:48:36;;;;;;;10.20;5.05;;;;;;;15.39;59.36;100130.59;5080888;28;20036;-67
2021/04/23 03:51:04;;;;;;;11.07;6.20;;;;;;;15.45;59.12;100145.03;5079957;28;21481;-67
2021/04/23 03:53:30;;;;;;;17.00;8.00;;;;;;;15.46;58.74;100155.53;5080378;28;20037;-67
2021/04/23 03:55:56;;;;;;;11.82;5.65;;;;;;;15.47;58.75;100146.50;5084075;28;20035;-67
2021/04/23 03:58:23;;;;;;;10.15;4.80;;;;;;;15.33;59.06;100148.16;5080142;28;20040;-67
2021/04/23 04:00:56;;;;;;;7.93;4.68;;;;;;;15.41;58.93;100147.25;5080077;28;20044;-65
2021/04/23 04:03:23;;;;;;;9.60;4.70;;;;;;;15.30;59.32;100147.69;5083632;28;20306;-65
2021/04/23 04:05:49;;;;;;;9.75;4.30;;;;;;;15.34;59.46;100138.31;5081770;28;20044;-66
2021/04/23 04:08:15;;;;;;;7.85;3.88;;;;;;;15.31;59.61;100141.34;5082978;28;20258;-67
2021/04/23 04:10:41;;;;;;;8.45;4.20;;;;;;;15.31;59.54;100138.69;5084408;28;20035;-67
2021/04/23 04:13:07;;;;;;;10.13;4.75;;;;;;;15.18;60.02;100141.97;5086309;28;20055;-67
2021/04/23 04:15:37;;;;;;;8.30;4.75;;;;;;;15.28;59.76;100145.22;5082978;28;20219;-67
2021/04/23 04:18:04;;;;;;;10.35;5.10;;;;;;;15.15;60.25;100138.84;5085492;28;20040;-67
2021/04/23 04:20:32;;;;;;;16.67;5.00;;;;;;;15.14;60.73;100170.03;5083723;28;20032;-67
2021/04/23 04:22:58;;;;;;;13.73;4.93;;;;;;;15.14;60.91;100177.19;5082793;28;20149;-67
2021/04/23 04:25:27;;;;;;;9.40;4.72;;;;;;;15.08;61.68;100186.75;5084928;28;20036;-67
2021/04/23 04:27:54;;;;;;;13.38;4.97;;;;;;;15.13;61.97;100195.03;5082889;28;20034;-67
2021/04/23 04:30:20;;;;;;;10.85;4.43;;;;;;;15.06;62.09;100193.28;5082838;28;20063;-67
2021/04/23 04:32:45;;;;;;;13.88;4.78;;;;;;;15.13;62.13;100178.22;5084378;28;20024;-67
2021/04/23 04:35:12;;;;;;;15.52;4.35;;;;;;;15.14;62.23;100167.34;5083092;28;20032;-67
2021/04/23 04:37:38;;;;;;;12.43;4.32;;;;;;;15.14;62.43;100166.53;5082898;28;20028;-67
2021/04/23 04:40:06;;;;;;;8.25;4.18;;;;;;;15.10;62.61;100173.22;5084537;28;20122;-67
2021/04/23 04:42:31;;;;;;;5.15;3.78;;;;;;;15.04;63.16;100189.97;5083786;28;20254;-67
2021/04/23 04:45:01;;;;;;;7.28;3.75;;;;;;;15.12;63.23;100187.22;5083116;28;20044;-67
2021/04/23 04:47:28;;;;;;;7.60;4.07;;;;;;;15.19;63.30;100177.47;5082869;28;20032;-67
2021/04/23 04:49:53;;;;;;;10.00;4.20;;;;;;;15.21;63.17;100178.13;5082678;28;20277;-65
2021/04/23 04:52:19;;;;;;;8.18;4.10;;;;;;;15.07;63.98;100186.94;5083373;28;20020;-66
2021/04/23 04:54:44;;;;;;;10.45;4.38;;;;;;;15.25;63.74;100182.09;5084176;28;20039;-68
2021/04/23 04:57:10;;;;;;;11.35;4.72;;;;;;;15.23;63.71;100184.13;5083991;28;20031;-67
2021/04/23 04:59:35;;;;;;;11.55;4.60;;;;;;;15.28;64.07;100173.72;5081779;28;20048;-67
2021/04/23 05:02:00;;;;;;;19.90;7.82;;;;;;;15.36;63.95;100175.47;5083473;28;20012;-67
2021/04/23 05:04:26;;;;;;;10.77;5.65;;;;;;;15.37;63.52;100177.97;5081936;28;20289;-67
2021/04/23 05:06:51;;;;;;;14.93;5.47;;;;;;;15.23;63.26;100174.28;5085770;28;20314;-67
2021/04/23 05:09:17;;;;;;;10.10;5.40;;;;;;;15.12;63.86;100180.03;5083223;28;20044;-67
2021/04/23 05:11:42;;;;;;;11.43;4.60;;;;;;;15.32;63.78;100178.50;5092043;28;20039;-67
2021/04/23 05:14:07;;;;;;;17.80;5.40;;;;;;;15.27;63.82;100180.91;5102477;28;20256;-67
2021/04/23 05:16:33;;;;;;;13.93;5.13;;;;;;;15.43;62.88;100177.25;5093056;28;20348;-67
2021/04/23 05:18:59;;;;;;;10.80;4.43;;;;;;;15.66;62.34;100179.88;5082195;28;20060;-68
2021/04/23 05:21:25;;;;;;;10.90;4.20;;;;;;;15.64;61.91;100177.41;5082483;28;20065;-67
2021/04/23 05:23:51;;;;;;;12.70;4.70;;;;;;;15.80;61.31;100171.03;5083032;28;20039;-67
2021/04/23 05:26:16;;;;;;;10.38;4.82;;;;;;;15.92;60.90;100174.91;5082203;28;20091;-67
2021/04/23 05:28:41;;;;;;;11.43;5.22;;;;;;;16.15;60.32;100176.59;5082669;28;20058;-67
2021/04/23 05:31:07;;;;;;;11.57;4.97;;;;;;;16.36;60.00;100183.84;5082014;28;20558;-67
2021/04/23 05:33:32;;;;;;;19.80;5.35;;;;;;;16.58;59.47;100182.84;5082518;28;20036;-67
2021/04/23 05:35:58;;;;;;;7.03;4.35;;;;;;;16.56;59.82;100176.84;5083574;28;20028;-66
2021/04/23 05:38:23;;;;;;;14.18;4.50;;;;;;;16.47;59.99;100186.00;5082791;28;20030;-66
2021/04/23 05:40:49;;;;;;;11.20;4.55;;;;;;;16.61;59.89;100202.00;5082832;28;20106;-67
2021/04/23 05:43:16;;;;;;;14.15;4.45;;;;;;;16.53;60.12;100191.44;5081512;28;20040;-67
2021/04/23 05:45:44;;;;;;;9.68;4.63;;;;;;;16.45;60.19;100201.41;5081825;28;20214;-67
2021/04/23 05:48:10;;;;;;;10.63;4.40;;;;;;;16.38;60.46;100190.66;5080902;28;20274;-67
2021/04/23 05:50:37;;;;;;;14.38;3.80;;;;;;;16.31;60.37;100215.66;5082701;28;20025;-67
2021/04/23 05:53:04;;;;;;;9.80;4.18;;;;;;;16.32;60.70;100204.75;5082525;28;20036;-67
2021/04/23 05:55:29;;;;;;;7.38;4.28;;;;;;;16.44;60.45;100205.94;5080992;28;20016;-67
2021/04/23 05:57:59;;;;;;;9.02;3.58;;;;;;;16.43;59.72;100206.94;5082075;28;20028;-67
2021/04/23 06:00:30;;;;;;;7.30;3.72;;;;;;;16.55;59.84;100215.31;5090866;28;20357;-67
2021/04/23 06:02:57;;;;;;;8.30;3.72;;;;;;;16.43;59.98;100212.28;5086354;28;20086;-67
2021/04/23 06:05:27;;;;;;;8.23;3.08;;;;;;;16.38;59.99;100217.38;5086162;28;20345;-67
2021/04/23 06:07:55;;;;;;;10.93;3.17;;;;;;;16.56;59.90;100222.31;5082942;28;20033;-67
2021/04/23 06:10:20;;;;;;;6.03;3.33;;;;;;;16.66;59.84;100217.53;5080850;28;20231;-67
2021/04/23 06:12:46;;;;;;;5.22;3.03;;;;;;;16.53;59.83;100218.16;5082752;28;20066;-67
2021/04/23 06:15:12;;;;;;;6.78;3.75;;;;;;;16.70;59.83;100220.66;5083892;28;20015;-67
2021/04/23 06:17:39;;;;;;;7.65;3.40;;;;;;;16.60;59.81;100218.22;5080262;28;20028;-67
2021/04/23 06:20:08;;;;;;;7.85;3.45;;;;;;;16.63;60.35;100223.19;5081719;28;20042;-67
2021/04/23 06:22:33;;;;;;;15.50;4.53;;;;;;;16.72;60.21;100218.63;5083622;28;20686;-65
2021/04/23 06:24:59;;;;;;;5.55;3.28;;;;;;;16.81;60.50;100218.31;5080929;28;20028;-66
2021/04/23 06:27:24;;;;;;;6.68;3.33;;;;;;;17.01;59.48;100226.53;5082558;28;20325;-67
2021/04/23 06:29:51;;;;;;;9.57;3.40;;;;;;;17.01;59.99;100223.84;5091971;28;20068;-67
2021/04/23 06:32:17;;;;;;;4.07;2.40;;;;;;;17.21;58.86;100227.53;5093651;28;20047;-68
2021/04/23 06:34:42;;;;;;;7.57;2.78;;;;;;;17.29;58.55;100220.38;5093751;28;20039;-68
2021/04/23 06:37:08;;;;;;;10.32;2.35;;;;;;;17.32;57.66;100217.31;5091396;28;20044;-67
2021/04/23 06:39:33;;;;;;;7.95;2.70;;;;;;;17.42;56.82;100212.44;5091054;28;20036;-67
2021/04/23 06:41:59;;;;;;;3.30;2.35;;;;;;;17.49;56.08;100218.66;5094075;28;20028;-67
2021/04/23 06:44:25;;;;;;;3.78;2.25;;;;;;;17.46;57.26;100221.72;5091891;28;20093;-67
2021/04/23 06:46:50;;;;;;;2.90;2.00;;;;;;;17.50;57.42;100221.16;5090637;28;20036;-67
2021/04/23 06:49:17;;;;;;;3.72;1.77;;;;;;;17.52;55.96;100226.31;5093043;28;20381;-67
2021/04/23 06:51:43;;;;;;;3.60;2.10;;;;;;;17.52;56.33;100223.63;5094683;28;20032;-67
2021/04/23 06:54:08;;;;;;;2.75;1.63;;;;;;;17.56;54.87;100231.06;5091830;28;20093;-67
2021/04/23 06:56:34;;;;;;;3.67;2.00;;;;;;;17.49;55.78;100240.09;5091732;28;20028;-67
2021/04/23 06:59:00;;;;;;;10.60;2.00;;;;;;;17.50;55.68;100239.06;5092801;28;20103;-65
2021/04/23 07:01:25;;;;;;;3.05;2.03;;;;;;;17.56;55.31;100249.00;5091654;28;20130;-66
2021/04/23 07:03:51;;;;;;;14.25;2.25;;;;;;;17.66;54.41;100240.63;5091844;28;20037;-66
2021/04/23 07:06:16;;;;;;;6.55;2.38;;;;;;;17.81;54.06;100247.59;5093030;28;20028;-67
2021/04/23 07:08:42;;;;;;;11.07;2.95;;;;;;;17.77;54.14;100254.34;5092364;28;20024;-67
2021/04/23 07:11:08;;;;;;;6.45;2.50;;;;;;;17.95;53.17;100248.47;5091700;28;20032;-67
2021/04/23 07:13:34;;;;;;;3.95;2.35;;;;;;;18.09;52.45;100246.69;5092426;28;20036;-68
2021/04/23 07:16:00;;;;;;;14.98;4.53;;;;;;;18.04;52.88;100249.16;5090921;28;20032;-68
2021/04/23 07:18:28;;;;;;;10.73;2.78;;;;;;;18.08;53.08;100239.69;5093306;28;20231;-68
2021/04/23 07:20:55;;;;;;;7.13;3.00;;;;;;;18.22;53.19;100251.28;5091412;28;20037;-67
2021/04/23 07:23:20;;;;;;;8.57;3.00;;;;;;;18.09;52.59;100244.03;5090275;28;20054;-67
2021/04/23 07:25:46;;;;;;;8.10;3.30;;;;;;;18.13;52.92;100243.44;5092968;28;20024;-67
2021/04/23 07:28:12;;;;;;;6.90;2.50;;;;;;;17.86;53.33;100231.75;5092566;28;20024;-67
2021/04/23 07:30:38;;;;;;;13.93;2.83;;;;;;;17.99;53.31;100249.75;5095288;28;20321;-67
2021/04/23 07:33:06;;;;;;;10.88;2.65;;;;;;;18.01;53.04;100253.06;5099877;28;20024;-67
2021/04/23 07:35:32;;;;;;;7.82;2.53;;;;;;;18.27;52.52;100251.53;5092336;28;20031;-67
2021/04/23 07:37:59;;;;;;;3.65;2.20;;;;;;;18.59;51.92;100250.81;5093830;28;20089;-67
2021/04/23 07:40:25;;;;;;;8.32;2.10;;;;;;;18.49;51.17;100247.69;5092284;28;20036;-67
2021/04/23 07:42:51;;;;;;;7.07;2.50;;;;;;;18.43;51.34;100243.13;5103575;28;20024;-67
2021/04/23 07:45:18;;;;;;;6.88;2.05;;;;;;;18.35;51.58;100244.13;5103955;28;20023;-67
2021/04/23 07:47:44;;;;;;;4.80;2.25;;;;;;;18.56;51.21;100251.22;5100225;28;20032;-67
2021/04/23 07:50:11;;;;;;;9.30;2.97;;;;;;;18.67;51.61;100253.34;5103262;28;20029;-66
2021/04/23 07:52:36;;;;;;;8.18;2.90;;;;;;;18.62;50.97;100253.13;5103503;28;20030;-66
2021/04/23 07:55:04;;;;;;;6.25;3.00;;;;;;;18.78;51.49;100244.75;5103995;28;20028;-67
2021/04/23 07:57:30;;;;;;;7.90;2.40;;;;;;;18.71;52.04;100243.03;5101408;28;20194;-67
2021/04/23 07:59:55;;;;;;;5.32;2.33;;;;;;;18.78;51.58;100238.56;5102960;28;20036;-67
2021/04/23 08:02:21;;;;;;;5.80;2.08;;;;;;;18.84;50.43;100244.97;5101293;28;20366;-67
2021/04/23 08:04:47;;;;;;;5.30;2.70;;;;;;;18.72;50.65;100255.44;5104238;28;20043;-67
2021/04/23 08:07:12;;;;;;;4.65;2.20;;;;;;;18.73;50.45;100249.06;5103018;28;20314;-67
2021/04/23 08:09:39;;;;;;;3.63;2.60;;;;;;;18.72;50.96;100250.06;5104325;28;20020;-67
2021/04/23 08:12:06;;;;;;;3.88;2.30;;;;;;;18.72;50.42;100253.56;5102064;28;20026;-67
2021/04/23 08:14:31;;;;;;;5.82;2.10;;;;;;;18.59;51.00;100247.31;5104336;28;20039;-67
2021/04/23 08:16:57;;;;;;;10.10;2.60;;;;;;;18.66;51.72;100243.66;5100838;28;20030;-67
2021/04/23 08:19:22;;;;;;;4.90;2.17;;;;;;;18.57;51.51;100252.88;5101835;28;20058;-67
2021/04/23 08:21:48;;;;;;;4.47;2.30;;;;;;;18.52;51.28;100249.97;5102342;28;20343;-67
2021/04/23 08:24:14;;;;;;;8.05;2.67;;;;;;;18.51;51.46;100245.63;5101281;28;20310;-67
2021/04/23 08:26:42;;;;;;;2.60;2.10;;;;;;;18.55;51.24;100235.34;5101470;28;20225;-67
2021/04/23 08:29:07;;;;;;;5.93;2.53;;;;;;;18.67;51.27;100252.53;5101456;28;20028;-67
2021/04/23 08:31:33;;;;;;;7.95;2.47;;;;;;;18.63;50.71;100237.88;5101641;28;20265;-68
2021/04/23 08:33:58;;;;;;;7.57;3.00;;;;;;;18.66;50.88;100246.34;5103218;28;20032;-66
2021/04/23 08:36:24;;;;;;;8.98;2.10;;;;;;;18.78;51.07;100241.22;5104014;28;20077;-66
2021/04/23 08:38:49;;;;;;;4.88;2.15;;;;;;;18.68;50.74;100238.09;5102977;28;20044;-67
2021/04/23 08:41:15;;;;;;;2.90;2.00;;;;;;;18.49;51.94;100237.78;5103296;28;20042;-67
2021/04/23 08:43:40;;;;;;;3.50;2.15;;;;;;;18.51;51.77;100233.06;5102057;28;20100;-67
2021/04/23 08:46:06;;;;;;;3.28;2.00;;;;;;;18.66;51.59;100246.34;5102591;28;20032;-67
2021/04/23 08:48:32;;;;;;;4.70;2.20;;;;;;;18.89;51.35;100248.69;5101507;28;20032;-67
2021/04/23 08:50:58;;;;;;;4.80;2.20;;;;;;;18.74;50.22;100239.97;5102171;28;20059;-67
2021/04/23 08:53:26;;;;;;;9.65;2.00;;;;;;;18.76;50.96;100249.47;5100006;28;20055;-67
2021/04/23 08:55:54;;;;;;;5.57;1.98;;;;;;;18.84;49.78;100240.41;5098920;28;20210;-67
2021/04/23 08:58:19;;;;;;;7.15;2.45;;;;;;;18.94;50.18;100234.66;5091956;28;20040;-68
2021/04/23 09:00:46;;;;;;;5.10;1.85;;;;;;;19.14;48.54;100230.97;5091521;28;20047;-67
2021/04/23 09:03:12;;;;;;;1.85;1.45;;;;;;;19.02;48.35;100234.47;5092012;28;20033;-67
2021/04/23 09:05:38;;;;;;;12.45;2.83;;;;;;;18.94;50.64;100238.16;5090852;28;20198;-68
2021/04/23 09:08:06;;;;;;;7.32;2.00;;;;;;;18.96;49.94;100240.66;5094376;28;20044;-68
2021/04/23 09:10:33;;;;;;;7.63;2.60;;;;;;;19.09;49.54;100232.59;5094611;28;20048;-67
2021/04/23 09:13:12;;;;;;;2.65;1.70;;;;;;;19.08;48.69;100229.09;5094307;28;20048;-67
2021/04/23 09:15:40;;;;;;;3.38;1.63;;;;;;;19.18;49.47;100227.84;5099944;28;20050;-67
2021/04/23 09:18:10;;;;;;;6.20;1.50;;;;;;;19.31;48.34;100228.69;5101819;28;20020;-66
2021/04/23 09:20:38;;;;;;;2.33;1.40;;;;;;;19.38;47.97;100228.69;5093259;28;20337;-66
2021/04/23 09:23:30;;;;;;;4.53;1.35;;;;;;;19.42;47.43;100224.53;5101100;28;20187;-67
2021/04/23 09:25:58;;;;;;;2.30;1.25;;;;;;;19.38;46.49;100221.44;5092057;28;20044;-67
2021/04/23 09:28:32;;;;;;;3.25;1.25;;;;;;;19.34;46.41;100222.91;5095647;28;20314;-67
2021/04/23 09:30:58;;;;;;;3.10;1.30;;;;;;;19.70;46.49;100221.66;5093371;28;20060;-67
2021/04/23 09:33:25;;;;;;;4.60;1.40;;;;;;;19.92;44.09;100220.38;5092324;28;20036;-67
2021/04/23 09:35:52;;;;;;;6.20;1.52;;;;;;;19.84;45.13;100223.31;5098033;28;20032;-67
2021/04/23 09:38:17;;;;;;;4.43;1.33;;;;;;;19.71;44.66;100229.50;5101439;28;20046;-67
2021/04/23 09:40:43;;;;;;;4.72;2.13;;;;;;;19.62;45.52;100221.88;5097644;28;20226;-67
2021/04/23 09:43:09;;;;;;;2.85;1.30;;;;;;;20.05;44.58;100219.50;5091163;28;20033;-68
2021/04/23 09:45:55;;;;;;;7.43;1.75;;;;;;;20.09;44.75;100218.06;5092771;28;20133;-67
2021/04/23 09:48:25;;;;;;;4.70;1.75;;;;;;;20.34;44.76;100224.34;5091817;28;20316;-68
2021/04/23 09:50:53;;;;;;;4.18;1.50;;;;;;;20.56;43.81;100221.38;5097658;28;20028;-68
2021/04/23 09:53:29;;;;;;;5.97;1.40;;;;;;;20.49;43.12;100218.72;5101616;28;20089;-67
2021/04/23 09:55:56;;;;;;;4.50;1.20;;;;;;;20.62;42.76;100221.34;5102583;28;20057;-68
2021/04/23 09:58:21;;;;;;;3.78;1.10;;;;;;;20.55;43.12;100223.25;5099887;28;20054;-68
2021/04/23 10:00:59;;;;;;;4.07;1.30;;;;;;;20.82;42.85;100217.75;5097225;28;20032;-67
2021/04/23 10:03:34;;;;;;;3.78;1.65;;;;;;;20.68;42.63;100216.97;5096819;28;20357;-66
2021/04/23 10:06:22;;;;;;;8.10;1.67;;;;;;;20.83;42.40;100216.69;5100981;28;20035;-66
2021/04/23 10:08:48;;;;;;;3.42;1.70;;;;;;;20.80;42.61;100206.34;5092138;28;20260;-68
2021/04/23 10:11:13;;;;;;;1.83;1.33;;;;;;;20.99;42.68;100203.53;5093223;28;20091;-68
2021/04/23 10:13:39;;;;;;;4.32;1.60;;;;;;;21.18;42.08;100214.38;5092817;28;20040;-68
2021/04/23 10:16:05;;;;;;;8.73;2.10;;;;;;;21.06;40.94;100208.88;5096783;28;20034;-67
2021/04/23 10:18:32;;;;;;;7.20;2.03;;;;;;;20.65;42.09;100207.47;5100620;28;20258;-67
2021/04/23 10:20:59;;;;;;;5.43;1.85;;;;;;;20.61;41.21;100202.72;5096053;28;20039;-68
2021/04/23 10:23:25;;;;;;;6.13;1.98;;;;;;;20.58;41.59;100208.53;5092000;28;20382;-68
2021/04/23 10:25:53;;;;;;;6.45;1.92;;;;;;;20.70;41.15;100199.56;5095838;28;20224;-67
2021/04/23 10:28:21;;;;;;;5.35;1.70;;;;;;;20.78;40.72;100208.41;5090110;28;20036;-68
2021/04/23 10:30:50;;;;;;;5.38;1.98;;;;;;;20.58;41.60;100205.84;5093010;28;20248;-67
2021/04/23 10:33:17;;;;;;;5.45;1.88;;;;;;;20.50;42.90;100201.56;5093229;28;20699;-68
2021/04/23 10:35:46;;;;;;;9.05;3.25;;;;;;;20.97;42.26;100197.53;5092595;28;20032;-68
2021/04/23 10:38:14;;;;;;;5.15;2.83;;;;;;;21.39;40.71;100189.75;5088854;28;20396;-68
2021/04/23 10:40:42;;;;;;;4.57;2.33;;;;;;;21.35;40.16;100192.06;5091821;28;20360;-68
2021/04/23 10:43:14;;;;;;;3.88;2.10;;;;;;;21.56;39.69;100184.63;5092239;28;20032;-68
2021/04/23 10:46:09;;;;;;;6.10;1.85;;;;;;;21.36;39.11;100184.81;5092565;28;20028;-68
2021/04/23 10:48:40;;;;;;;3.03;1.60;;;;;;;21.45;38.25;100175.41;5088958;28;20040;-66
2021/04/23 10:51:22;;;;;;;9.50;2.17;;;;;;;21.55;38.83;100177.59;5091014;28;20068;-66
2021/04/23 10:54:10;;;;;;;6.70;1.90;;;;;;;21.64;38.83;100168.97;5091624;28;20044;-68
2021/04/23 10:56:47;;;;;;;5.65;1.85;;;;;;;21.63;38.34;100166.50;5090180;28;20024;-68
2021/04/23 10:59:22;;;;;;;4.10;1.80;;;;;;;21.52;38.26;100178.84;5090101;28;20044;-68
2021/04/23 11:01:52;;;;;;;6.05;1.50;;;;;;;21.49;38.50;100184.69;5092002;28;20036;-68
2021/04/23 11:04:19;;;;;;;5.60;1.52;;;;;;;21.62;38.53;100181.03;5092016;28;20060;-68
2021/04/23 11:06:50;;;;;;;2.17;1.30;;;;;;;21.30;39.03;100181.13;5092233;28;20028;-68
2021/04/23 11:09:18;;;;;;;1.77;1.35;;;;;;;21.29;39.59;100170.59;5096063;28;20032;-68
2021/04/23 11:12:17;;;;;;;3.53;1.40;;;;;;;20.90;39.30;100182.47;5097981;28;20036;-68
2021/04/23 11:14:44;;;;;;;2.53;1.38;;;;;;;20.74;39.16;100186.50;5100680;28;20043;-68
2021/04/23 11:17:22;;;;;;;2.55;1.10;;;;;;;20.51;40.19;100160.16;5105193;28;20028;-67
2021/04/23 11:19:52;;;;;;;1.38;1.17;;;;;;;20.65;41.30;100191.31;5103998;28;20047;-68
2021/04/23 11:22:23;;;;;;;2.45;1.90;;;;;;;20.75;40.22;100174.69;5104925;28;20035;-67
2021/04/23 11:25:20;;;;;;;4.05;1.60;;;;;;;20.77;40.91;100177.16;5103983;28;20044;-67